createdAt,value
2018-08-16T00:02:24.506Z,15.07
2018-08-16T00:04:58.140Z,15.07
2018-08-16T00:07:30.724Z,15.05
2018-08-16T00:10:13.004Z,15.02
2018-08-16T00:12:48.476Z,14.97
2018-08-16T00:15:22.041Z,14.92
2018-08-16T00:17:54.956Z,14.88
2018-08-16T00:20:28.181Z,14.91
2018-08-16T00:23:01.568Z,14.93
2018-08-16T00:25:34.509Z,14.98
2018-08-16T00:28:08.633Z,14.93
2018-08-16T00:30:41.977Z,14.98
2018-08-16T00:33:14.919Z,14.91
2018-08-16T00:35:47.437Z,14.83
2018-08-16T00:38:21.675Z,14.90
2018-08-16T00:40:55.192Z,14.93
2018-08-16T00:43:29.605Z,14.82
2018-08-16T00:46:02.017Z,14.75
2018-08-16T00:48:34.804Z,14.72
2018-08-16T00:51:09.149Z,14.74
2018-08-16T00:53:53.225Z,14.83
2018-08-16T00:56:26.634Z,14.75
2018-08-16T00:58:59.913Z,14.67
2018-08-16T01:01:36.369Z,14.63
2018-08-16T01:04:10.585Z,14.55
2018-08-16T01:06:44.742Z,14.54
2018-08-16T01:09:17.946Z,14.52
2018-08-16T01:11:53.713Z,14.47
2018-08-16T01:14:28.853Z,14.41
2018-08-16T01:17:02.569Z,14.34
2018-08-16T01:19:36.413Z,14.35
2018-08-16T01:22:09.593Z,14.49
2018-08-16T01:24:44.887Z,14.56
2018-08-16T01:27:17.560Z,14.58
2018-08-16T01:29:50.124Z,14.65
2018-08-16T01:32:23.112Z,14.66
2018-08-16T01:34:56.562Z,14.59
2018-08-16T01:37:29.022Z,14.45
2018-08-16T01:40:01.980Z,14.35
2018-08-16T01:42:34.840Z,14.24
2018-08-16T01:45:08.261Z,14.14
2018-08-16T01:47:41.897Z,14.10
2018-08-16T01:50:14.753Z,14.07
2018-08-16T01:52:47.887Z,14.09
2018-08-16T01:55:21.677Z,14.05
2018-08-16T01:57:55.947Z,13.96
2018-08-16T02:00:28.472Z,13.87
2018-08-16T02:03:01.912Z,13.81
2018-08-16T02:05:35.297Z,13.78
2018-08-16T02:08:08.025Z,13.78
2018-08-16T02:10:42.243Z,13.76
2018-08-16T02:13:17.444Z,13.73
2018-08-16T02:15:50.079Z,13.67
2018-08-16T02:18:23.929Z,13.75
2018-08-16T02:20:56.572Z,13.73
2018-08-16T02:23:31.498Z,13.69
2018-08-16T02:26:05.935Z,13.70
2018-08-16T02:28:42.636Z,13.66
2018-08-16T02:31:17.347Z,13.63
2018-08-16T02:33:52.398Z,13.58
2018-08-16T02:36:25.335Z,13.55
2018-08-16T02:39:01.200Z,13.69
2018-08-16T02:41:35.743Z,13.66
2018-08-16T02:44:10.693Z,13.54
2018-08-16T02:46:44.404Z,13.46
2018-08-16T02:49:17.012Z,13.38
2018-08-16T02:51:51.808Z,13.34
2018-08-16T02:54:24.463Z,13.31
2018-08-16T02:56:57.104Z,13.37
2018-08-16T02:59:29.872Z,13.36
2018-08-16T03:04:35.183Z,13.29
2018-08-16T03:07:08.034Z,13.25
2018-08-16T03:09:40.666Z,13.31
2018-08-16T03:12:13.750Z,13.27
2018-08-16T03:14:46.925Z,13.24
2018-08-16T03:17:20.552Z,13.18
2018-08-16T03:19:53.306Z,13.16
2018-08-16T03:22:26.732Z,13.23
2018-08-16T03:25:00.381Z,13.26
2018-08-16T03:27:32.728Z,13.26
2018-08-16T03:30:37.261Z,13.22
2018-08-16T03:33:10.268Z,13.18
2018-08-16T03:35:42.964Z,13.15
2018-08-16T03:38:15.844Z,13.21
2018-08-16T03:40:48.769Z,13.31
2018-08-16T03:43:21.655Z,13.41
2018-08-16T03:45:54.292Z,13.33
2018-08-16T03:48:27.583Z,13.24
2018-08-16T03:51:01.394Z,13.18
2018-08-16T03:53:34.068Z,13.10
2018-08-16T03:56:07.759Z,13.17
2018-08-16T03:58:42.720Z,13.16
2018-08-16T04:01:16.404Z,13.16
2018-08-16T04:03:49.590Z,13.12
2018-08-16T04:06:22.738Z,13.05
2018-08-16T04:08:56.080Z,13.01
2018-08-16T04:11:29.756Z,13.04
2018-08-16T04:14:07.784Z,13.03
2018-08-16T04:16:40.172Z,13.01
2018-08-16T04:19:12.773Z,12.98
2018-08-16T04:21:48.349Z,12.95
2018-08-16T04:24:21.996Z,12.92
2018-08-16T04:26:54.578Z,12.90
2018-08-16T04:29:27.477Z,12.90
2018-08-16T04:32:00.149Z,12.90
2018-08-16T04:34:32.647Z,13.05
2018-08-16T04:37:07.072Z,13.19
2018-08-16T04:39:39.659Z,13.20
2018-08-16T04:42:13.009Z,13.28
2018-08-16T04:44:47.888Z,13.39
2018-08-16T04:47:20.453Z,13.41
2018-08-16T04:49:53.094Z,13.45
2018-08-16T04:52:26.027Z,13.52
2018-08-16T04:54:58.653Z,13.59
2018-08-16T04:57:31.380Z,13.61
2018-08-16T05:00:06.688Z,13.67
2018-08-16T05:02:39.857Z,13.82
2018-08-16T05:05:12.868Z,13.97
2018-08-16T05:07:47.689Z,14.01
2018-08-16T05:10:23.564Z,14.05
2018-08-16T05:12:56.629Z,14.17
2018-08-16T05:15:29.650Z,14.32
2018-08-16T05:18:06.773Z,14.15
2018-08-16T05:20:40.101Z,13.92
2018-08-16T05:23:13.919Z,13.74
2018-08-16T05:25:46.660Z,13.73
2018-08-16T05:28:19.897Z,13.99
2018-08-16T05:30:52.676Z,14.25
2018-08-16T05:33:26.157Z,14.35
2018-08-16T05:35:58.760Z,14.54
2018-08-16T05:38:32.674Z,14.79
2018-08-16T05:41:05.344Z,15.02
2018-08-16T05:43:37.929Z,15.16
2018-08-16T05:46:10.879Z,15.26
2018-08-16T05:48:43.462Z,15.40
2018-08-16T05:51:17.748Z,15.52
2018-08-16T05:53:55.876Z,15.69
2018-08-16T05:56:29.444Z,15.81
2018-08-16T05:59:01.979Z,15.90
2018-08-16T06:01:35.784Z,15.97
2018-08-16T06:04:08.296Z,16.03
2018-08-16T06:06:42.230Z,16.11
2018-08-16T06:09:15.340Z,16.22
2018-08-16T06:11:48.148Z,16.35
2018-08-16T06:14:20.717Z,16.50
2018-08-16T06:16:53.602Z,16.59
2018-08-16T06:19:27.168Z,16.66
2018-08-16T06:21:59.836Z,16.73
2018-08-16T06:24:33.347Z,16.79
2018-08-16T06:27:06.752Z,16.86
2018-08-16T06:29:40.085Z,16.93
2018-08-16T06:32:15.514Z,17.00
2018-08-16T06:34:48.076Z,17.04
2018-08-16T06:37:21.944Z,17.07
2018-08-16T06:39:54.533Z,17.14
2018-08-16T06:42:27.188Z,17.21
2018-08-16T06:45:00.949Z,17.26
2018-08-16T06:47:34.233Z,17.33
2018-08-16T06:50:07.680Z,17.42
2018-08-16T06:52:41.561Z,17.52
2018-08-16T06:55:14.824Z,17.61
2018-08-16T06:57:49.684Z,17.73
2018-08-16T07:00:22.754Z,17.84
2018-08-16T07:02:56.802Z,17.94
2018-08-16T07:05:30.177Z,18.04
2018-08-16T07:08:02.807Z,18.18
2018-08-16T07:10:35.289Z,18.30
2018-08-16T07:13:09.616Z,18.38
2018-08-16T07:15:44.830Z,18.51
2018-08-16T07:18:17.790Z,18.64
2018-08-16T07:20:51.749Z,18.81
2018-08-16T07:23:26.366Z,18.98
2018-08-16T07:25:59.049Z,19.15
2018-08-16T07:28:31.920Z,19.46
2018-08-16T07:31:04.593Z,20.27
2018-08-16T07:33:37.102Z,21.07
2018-08-16T07:36:10.090Z,21.89
2018-08-16T07:38:43.954Z,22.36
2018-08-16T07:41:16.476Z,22.64
2018-08-16T07:43:52.528Z,22.90
2018-08-16T07:46:25.114Z,23.12
2018-08-16T07:48:57.970Z,22.98
2018-08-16T07:51:32.263Z,23.19
2018-08-16T07:54:04.909Z,23.59
2018-08-16T07:56:38.856Z,23.45
2018-08-16T07:59:12.897Z,23.06
2018-08-16T08:01:45.509Z,22.71
2018-08-16T08:04:18.487Z,22.61
2018-08-16T08:06:52.060Z,22.78
2018-08-16T08:09:25.048Z,22.69
2018-08-16T08:11:58.032Z,22.88
2018-08-16T08:14:34.149Z,23.07
2018-08-16T08:17:07.730Z,23.10
2018-08-16T08:19:49.768Z,22.92
2018-08-16T08:22:25.125Z,22.74
2018-08-16T08:24:58.981Z,22.65
2018-08-16T08:27:33.803Z,22.84
2018-08-16T08:30:13.413Z,22.95
2018-08-16T08:32:48.530Z,22.87
2018-08-16T08:35:22.618Z,22.72
2018-08-16T08:38:14.513Z,22.55
2018-08-16T08:40:48.664Z,22.45
2018-08-16T08:43:47.900Z,22.57
2018-08-16T08:46:21.270Z,22.56
2018-08-16T08:48:54.121Z,22.70
2018-08-16T08:51:28.846Z,22.60
2018-08-16T08:54:42.706Z,22.40
2018-08-16T08:57:38.175Z,22.25
2018-08-16T09:00:17.842Z,22.29
2018-08-16T09:02:52.740Z,22.54
2018-08-16T09:05:27.882Z,23.49
2018-08-16T09:08:11.019Z,24.25
2018-08-16T09:11:09.732Z,24.32
2018-08-16T09:14:06.176Z,24.76
2018-08-16T09:16:42.307Z,25.10
2018-08-16T09:19:15.802Z,25.40
2018-08-16T09:21:49.548Z,25.35
2018-08-16T09:24:30.086Z,25.18
2018-08-16T09:27:04.161Z,25.11
2018-08-16T09:30:26.385Z,25.57
2018-08-16T09:33:34.370Z,25.71
2018-08-16T09:36:07.044Z,25.81
2018-08-16T09:38:40.465Z,25.46
2018-08-16T09:41:13.065Z,25.61
2018-08-16T09:43:47.006Z,25.80
2018-08-16T09:47:17.127Z,25.61
2018-08-16T09:49:50.696Z,25.75
2018-08-16T09:52:24.139Z,25.99
2018-08-16T09:54:57.665Z,26.00
2018-08-16T09:57:35.123Z,25.66
2018-08-16T10:00:07.872Z,25.73
2018-08-16T10:02:42.716Z,25.87
2018-08-16T10:05:22.701Z,25.84
2018-08-16T10:07:58.555Z,25.69
2018-08-16T10:10:35.912Z,25.38
2018-08-16T10:13:11.357Z,25.54
2018-08-16T10:15:44.793Z,26.05
2018-08-16T10:18:18.961Z,26.39
2018-08-16T10:20:53.003Z,26.48
2018-08-16T10:23:25.565Z,26.58
2018-08-16T10:26:02.442Z,26.76
2018-08-16T10:28:37.451Z,26.71
2018-08-16T10:31:11.430Z,26.54
2018-08-16T10:33:44.984Z,26.73
2018-08-16T10:36:17.710Z,27.49
2018-08-16T10:38:51.972Z,27.68
2018-08-16T10:41:26.118Z,27.20
2018-08-16T10:43:58.793Z,27.33
2018-08-16T10:46:32.152Z,27.34
2018-08-16T10:49:05.917Z,27.38
2018-08-16T10:51:39.484Z,27.37
2018-08-16T10:54:13.956Z,27.53
2018-08-16T10:56:46.755Z,27.76
2018-08-16T10:59:20.228Z,27.62
2018-08-16T11:01:54.700Z,27.62
2018-08-16T11:04:28.644Z,27.68
2018-08-16T11:07:01.548Z,28.22
2018-08-16T11:09:34.072Z,28.34
2018-08-16T11:12:08.084Z,27.98
2018-08-16T11:14:41.907Z,27.68
2018-08-16T11:17:15.220Z,27.74
2018-08-16T11:19:49.545Z,27.62
2018-08-16T11:22:28.625Z,27.73
2018-08-16T11:25:06.260Z,27.82
2018-08-16T11:27:41.802Z,28.06
2018-08-16T11:30:18.953Z,28.20
2018-08-16T11:32:51.380Z,28.12
2018-08-16T11:35:23.993Z,28.23
2018-08-16T11:37:57.433Z,28.04
2018-08-16T11:40:30.610Z,27.83
2018-08-16T11:43:06.509Z,27.77
2018-08-16T11:45:49.738Z,28.00
2018-08-16T11:48:23.833Z,28.34
2018-08-16T11:50:56.662Z,28.32
2018-08-16T11:53:33.196Z,28.17
2018-08-16T11:56:07.867Z,28.17
2018-08-16T11:58:41.047Z,28.67
2018-08-16T12:01:14.740Z,28.79
2018-08-16T12:03:47.562Z,28.87
2018-08-16T12:06:24.373Z,28.90
2018-08-16T12:08:56.737Z,29.34
2018-08-16T12:11:29.647Z,29.22
2018-08-16T12:14:03.845Z,29.32
2018-08-16T12:16:38.043Z,29.65
2018-08-16T12:19:14.311Z,29.85
2018-08-16T12:21:50.123Z,30.20
2018-08-16T12:24:26.135Z,30.67
2018-08-16T12:27:03.636Z,30.55
2018-08-16T12:29:49.358Z,30.72
2018-08-16T12:32:27.682Z,30.31
2018-08-16T12:35:03.603Z,30.43
2018-08-16T12:37:49.586Z,30.44
2018-08-16T12:40:23.837Z,30.41
2018-08-16T12:42:57.477Z,30.28
2018-08-16T12:45:31.161Z,30.23
2018-08-16T12:48:03.797Z,30.43
2018-08-16T12:50:54.376Z,31.07
2018-08-16T12:53:36.679Z,31.63
2018-08-16T12:56:12.437Z,31.48
2018-08-16T12:58:51.326Z,31.31
2018-08-16T13:01:32.964Z,30.99
2018-08-16T13:04:10.456Z,31.14
2018-08-16T13:06:49.610Z,31.34
2018-08-16T13:09:31.230Z,31.07
2018-08-16T13:12:07.010Z,31.34
2018-08-16T13:14:45.435Z,31.39
2018-08-16T13:17:17.884Z,31.88
2018-08-16T13:19:55.808Z,31.73
2018-08-16T13:22:30.309Z,31.06
2018-08-16T13:25:06.092Z,30.86
2018-08-16T13:27:43.154Z,30.81
2018-08-16T13:30:18.931Z,30.66
2018-08-16T13:32:53.297Z,30.68
2018-08-16T13:35:31.924Z,30.81
2018-08-16T13:38:10.726Z,30.66
2018-08-16T13:40:47.227Z,30.69
2018-08-16T13:43:23.992Z,30.42
2018-08-16T13:46:04.909Z,30.68
2018-08-16T13:48:39.728Z,30.87
2018-08-16T13:51:28.062Z,31.43
2018-08-16T13:54:05.117Z,32.08
2018-08-16T13:56:37.676Z,32.54
2018-08-16T13:59:13.433Z,32.98
2018-08-16T14:01:46.139Z,32.53
2018-08-16T14:04:18.690Z,32.30
2018-08-16T14:06:55.564Z,32.00
2018-08-16T14:09:28.374Z,31.76
2018-08-16T14:12:04.240Z,31.82
2018-08-16T14:14:42.367Z,31.72
2018-08-16T14:17:15.077Z,31.43
2018-08-16T14:19:48.865Z,31.58
2018-08-16T14:22:22.756Z,31.86
2018-08-16T14:24:55.353Z,32.09
2018-08-16T14:27:28.459Z,32.05
2018-08-16T14:30:03.312Z,32.32
2018-08-16T14:32:36.545Z,32.23
2018-08-16T14:35:10.385Z,32.26
2018-08-16T14:37:43.161Z,32.84
2018-08-16T14:40:16.810Z,32.95
2018-08-16T14:42:49.285Z,32.68
2018-08-16T14:45:25.187Z,32.75
2018-08-16T14:48:08.683Z,32.63
2018-08-16T14:50:42.078Z,32.27
2018-08-16T14:53:16.458Z,32.32
2018-08-16T14:55:51.265Z,32.91
2018-08-16T14:58:27.886Z,33.12
2018-08-16T15:01:02.740Z,33.04
2018-08-16T15:03:38.741Z,32.75
2018-08-16T15:06:14.416Z,32.58
2018-08-16T15:08:48.239Z,33.03
2018-08-16T15:11:22.973Z,33.08
2018-08-16T15:13:57.766Z,33.25
2018-08-16T15:16:34.156Z,33.63
2018-08-16T15:19:08.664Z,33.73
2018-08-16T15:21:41.262Z,33.67
2018-08-16T15:24:20.096Z,33.27
2018-08-16T15:26:55.752Z,32.98
2018-08-16T15:29:28.339Z,32.59
2018-08-16T15:32:10.467Z,32.36
2018-08-16T15:34:50.432Z,32.53
2018-08-16T15:37:24.150Z,32.64
2018-08-16T15:39:57.943Z,32.60
2018-08-16T15:42:32.019Z,32.69
2018-08-16T15:45:07.446Z,32.82
2018-08-16T15:47:41.200Z,32.87
2018-08-16T15:50:19.678Z,32.95
2018-08-16T15:52:52.859Z,33.13
2018-08-16T15:55:25.847Z,33.24
2018-08-16T15:57:59.126Z,33.29
2018-08-16T16:00:34.062Z,33.47
2018-08-16T16:03:07.646Z,33.22
2018-08-16T16:05:40.482Z,32.97
2018-08-16T16:08:14.534Z,32.94
2018-08-16T16:10:51.803Z,33.03
2018-08-16T16:13:28.146Z,32.90
2018-08-16T16:16:01.027Z,32.87
2018-08-16T16:18:49.667Z,32.93
2018-08-16T16:22:08.788Z,32.67
2018-08-16T16:27:37.400Z,32.48
2018-08-16T16:30:21.533Z,32.22
2018-08-16T16:33:08.253Z,32.31
2018-08-16T16:35:44.170Z,32.37
2018-08-16T16:38:19.520Z,32.04
2018-08-16T16:40:57.894Z,31.85
2018-08-16T16:43:36.285Z,31.65
2018-08-16T16:46:12.979Z,31.67
2018-08-16T16:48:51.225Z,31.84
2018-08-16T16:51:44.493Z,31.76
2018-08-16T16:54:21.672Z,31.38
2018-08-16T16:56:56.563Z,31.41
2018-08-16T16:59:56.418Z,31.55
2018-08-16T17:02:40.388Z,31.46
2018-08-16T17:05:31.183Z,31.40
2018-08-16T17:08:10.545Z,31.11
2018-08-16T17:10:52.617Z,30.79
2018-08-16T17:13:30.636Z,30.50
2018-08-16T17:16:15.795Z,30.07
2018-08-16T17:19:14.808Z,29.69
2018-08-16T17:22:22.880Z,29.53
2018-08-16T17:24:59.009Z,29.38
2018-08-16T17:27:55.256Z,29.35
2018-08-16T17:30:44.046Z,29.15
2018-08-16T17:33:23.708Z,29.02
2018-08-16T17:36:05.000Z,28.87
2018-08-16T17:38:39.830Z,28.68
2018-08-16T17:41:15.042Z,28.47
2018-08-16T17:43:48.469Z,28.26
2018-08-16T17:46:24.737Z,28.10
2018-08-16T17:48:59.454Z,28.00
2018-08-16T17:51:37.394Z,27.86
2018-08-16T17:54:09.958Z,27.70
2018-08-16T17:56:45.189Z,27.50
2018-08-16T17:59:18.168Z,27.33
2018-08-16T18:01:52.905Z,27.16
2018-08-16T18:04:29.388Z,26.99
2018-08-16T18:07:08.718Z,26.86
2018-08-16T18:09:43.906Z,26.73
2018-08-16T18:12:38.677Z,26.61
2018-08-16T18:15:32.570Z,26.48
2018-08-16T18:18:27.465Z,26.29
2018-08-16T18:21:02.484Z,26.09
2018-08-16T18:23:44.834Z,25.90
2018-08-16T18:26:40.361Z,25.73
2018-08-16T18:29:17.521Z,25.59
2018-08-16T18:31:51.337Z,25.48
2018-08-16T18:34:43.602Z,25.30
2018-08-16T18:37:22.650Z,25.12
2018-08-16T18:40:00.148Z,25.02
2018-08-16T18:42:58.496Z,24.87
2018-08-16T18:45:37.992Z,24.68
2018-08-16T18:48:14.656Z,24.57
2018-08-16T18:50:48.847Z,24.52
2018-08-16T18:53:25.407Z,24.45
2018-08-16T18:56:04.292Z,24.34
2018-08-16T18:58:38.164Z,24.16
2018-08-16T19:01:20.230Z,23.98
2018-08-16T19:03:53.747Z,23.84
2018-08-16T19:06:29.514Z,23.67
2018-08-16T19:09:07.402Z,23.51
2018-08-16T19:11:42.462Z,23.34
2018-08-16T19:14:16.704Z,23.20
2018-08-16T19:16:51.778Z,23.07
2018-08-16T19:19:32.131Z,22.97
2018-08-16T19:22:08.064Z,22.90
2018-08-16T19:24:42.310Z,22.83
2018-08-16T19:27:22.426Z,22.76
2018-08-16T19:29:57.602Z,22.67
2018-08-16T19:32:30.879Z,22.55
2018-08-16T19:35:08.289Z,22.46
2018-08-16T19:37:45.750Z,22.46
2018-08-16T19:40:20.207Z,22.34
2018-08-16T19:42:54.652Z,22.21
2018-08-16T19:45:38.789Z,22.08
2018-08-16T19:48:12.932Z,21.96
2018-08-16T19:50:48.582Z,21.89
2018-08-16T19:53:23.117Z,21.91
2018-08-16T19:55:58.431Z,21.87
2018-08-16T19:58:31.828Z,21.82
2018-08-16T20:01:08.374Z,21.78
2018-08-16T20:03:44.988Z,21.73
2018-08-16T20:06:20.537Z,21.67
2018-08-16T20:08:54.346Z,21.57
2018-08-16T20:11:31.728Z,21.47
2018-08-16T20:14:14.989Z,21.42
2018-08-16T20:16:51.628Z,21.42
2018-08-16T20:19:29.725Z,21.44
2018-08-16T20:22:14.478Z,21.46
2018-08-16T20:24:49.923Z,21.49
2018-08-16T20:27:28.955Z,21.49
2018-08-16T20:30:06.332Z,21.55
2018-08-16T20:32:45.054Z,21.49
2018-08-16T20:35:19.691Z,21.50
2018-08-16T20:38:06.201Z,21.48
2018-08-16T20:40:42.051Z,21.40
2018-08-16T20:43:16.936Z,21.31
2018-08-16T20:45:53.259Z,21.27
2018-08-16T20:48:29.884Z,21.31
2018-08-16T20:51:06.333Z,21.30
2018-08-16T20:53:41.611Z,21.25
2018-08-16T20:56:19.348Z,21.21
2018-08-16T20:58:54.676Z,21.20
2018-08-16T21:01:31.345Z,21.17
2018-08-16T21:04:05.993Z,21.18
2018-08-16T21:06:51.886Z,21.11
2018-08-16T21:09:27.233Z,21.02
2018-08-16T21:12:06.494Z,21.00
2018-08-16T21:14:41.702Z,20.94
2018-08-16T21:17:28.867Z,20.97
2018-08-16T21:20:01.655Z,20.93
2018-08-16T21:25:46.965Z,20.88
2018-08-16T21:28:23.647Z,20.96
2018-08-16T21:34:14.028Z,20.95
2018-08-16T21:36:54.061Z,20.88
2018-08-16T21:39:33.679Z,20.82
2018-08-16T21:42:11.711Z,20.74
2018-08-16T21:44:50.143Z,20.83
2018-08-16T21:47:24.886Z,20.86
2018-08-16T21:50:00.928Z,20.85
2018-08-16T21:52:35.424Z,20.85
2018-08-16T21:55:09.089Z,20.88
2018-08-16T21:57:44.801Z,20.89
2018-08-16T22:04:09.789Z,20.92
2018-08-16T22:07:02.573Z,20.92
2018-08-16T22:12:47.429Z,20.78
2018-08-16T22:15:22.678Z,20.69
2018-08-16T22:18:15.315Z,20.67
2018-08-16T22:20:49.827Z,20.65
2018-08-16T22:23:27.902Z,20.67
2018-08-16T22:26:02.425Z,20.74
2018-08-16T22:28:36.218Z,20.80
2018-08-16T22:31:09.444Z,20.70
2018-08-16T22:33:44.454Z,20.63
2018-08-16T22:36:17.661Z,20.59
2018-08-16T22:38:51.839Z,20.50
2018-08-16T22:41:29.044Z,20.47
2018-08-16T22:44:03.428Z,20.39
2018-08-16T22:46:37.352Z,20.37
2018-08-16T22:49:10.935Z,20.37
2018-08-16T22:51:48.263Z,20.34
2018-08-16T22:54:22.205Z,20.36
2018-08-16T22:56:54.960Z,20.31
2018-08-16T22:59:28.413Z,20.29
2018-08-16T23:02:03.320Z,20.24
2018-08-16T23:04:35.882Z,20.22
2018-08-16T23:07:12.867Z,20.21
2018-08-16T23:09:46.452Z,20.17
2018-08-16T23:12:20.772Z,20.20
2018-08-16T23:14:57.802Z,20.23
2018-08-16T23:17:30.807Z,20.31
2018-08-16T23:20:06.656Z,20.34
2018-08-16T23:22:40.405Z,20.31
2018-08-16T23:25:17.932Z,20.28
2018-08-16T23:27:58.352Z,20.19
2018-08-16T23:30:32.973Z,20.14
2018-08-16T23:33:05.776Z,20.02
2018-08-16T23:35:42.163Z,20.02
2018-08-16T23:38:16.057Z,20.04
2018-08-16T23:40:48.551Z,20.03
2018-08-16T23:43:21.937Z,19.98
2018-08-16T23:45:55.172Z,19.91
2018-08-16T23:48:33.060Z,19.88
2018-08-16T23:51:07.002Z,19.87
2018-08-16T23:53:41.725Z,19.90
2018-08-16T23:56:15.360Z,19.92
2018-08-16T23:58:50.976Z,19.91
